PTG weather

Polokwane International Airport
Polokwane, Limpopo, South Africa

Public forecast

Using degrees Celsius for public forecast. Weather courtesy of forecast.io.

METAR (pilot weather report)

Retrieved 2019/05/24 10:00 UTC (21 minutes ago):

FAPP 241000Z 11007KT 9999 FEW035 20/09 Q1029 NOSIG

TAF (pilot weather forecast)

Forecast is more than 12 hours old.

Retrieved 2017/06/05 04:55 UTC (2 years ago):

TAF FAPP 050300Z 0504/0515 16005KT CAVOK BECMG 0508/0510 06008KT TX21/0513ZTN08/0504Z